Holly, Michigan
Current Conditions -  °F | °C
As of 10:53 AM on Saturday 25 Oct 2014 (Local Time) from KFNT Reporting Station
Haze Haze  
Wind Chill: 58°   Ceiling: 1100
Heat Index: 58°   Visibility: 4mi
Dew Point: 52°   Wind: 17mph
Humidity: 81%   Direction: 290°WNW
Pressure: 29.81"   Gusts: NA
Location:  42.79°N, 83.63°W
Report Text: KFNT 251453Z 29015KT 4SM HZ OVC011 14/11 A2981 RMK AO2 SLP094 T01440111 55003
Loading
Personal Weather Stations






























Interactive Weather Map
Tropical Storm Tracking
New forecast layout! Learn more

10-Day Weather Forecast

Advertisements
Track Severe Weather on mobile